Jomi — C6VK4 — position and weather

sailwx.info

Track history (hours):
 
Tides and Currents Weather Stations Pressure Air Temp Water Temp Dewpoint Dewpoint Depression Visibility Wind Speed Wind Dir Waves Ship Positions

Jomi

Last reported at 2016-Jul-25 07:09 UTC. Time now 2016-Jul-26 16:01 UTC.
Position N 55°43' E 010°25'.

Length 88 m; draft 6 m.

Type: Cargo ship. MMSI: 309701000.

Date/timePositionNaut miles runAvg speedWind from/ knotsBaromVisibWave heightAir tempDewpointWater temp
2016-Jul-25 07:09N 55°43' E 010°25'810.7
2016-Jul-25 06:24N 55°45' E 010°39'8 9.0
2016-Jul-25 05:33N 55°50' E 010°49'9 9.2
2016-Jul-25 04:33N 55°57' E 010°60'9 9.2
2016-Jul-25 03:33N 56°05' E 011°08'10 9.7
2016-Jul-25 02:30N 56°09' E 011°25'1010.9
2016-Jul-25 01:33N 56°09' E 011°44'1010.5
2016-Jul-25 00:33N 56°11' E 012°02'1010.2
2016-Jul-24 23:33N 56°11' E 012°21'1111.2
2016-Jul-24 22:33N 56°04' E 012°37'1111.0
2016-Jul-24 21:33N 55°54' E 012°45'1111.3
2016-Jul-24 20:33N 55°43' E 012°41'1111.2
2016-Jul-24 19:33N 55°32' E 012°43'1010.4
2016-Jul-24 18:33N 55°22' E 012°41'9 8.9
2016-Jul-24 17:33N 55°16' E 012°54'1010.5
2016-Jul-24 16:34N 55°16' E 013°12'1110.5
2016-Jul-24 15:33N 55°15' E 013°30'1110.7
2016-Jul-24 14:33N 55°14' E 013°49'1111.0
2016-Jul-24 13:33N 55°14' E 014°08'10 9.6
2016-Jul-24 12:33N 55°18' E 014°23'1010.3
2016-Jul-24 11:33N 55°25' E 014°36'1110.5
2016-Jul-24 10:33N 55°30' E 014°53'8310.3
2016-Jul-24 02:31N 55°53' E 017°13'91 2.3
2016-Jul-22 10:33N 54°48' E 019°06'1010.5
2016-Jul-22 09:33N 54°39' E 018°57'1110.6
2016-Jul-22 08:33N 54°30' E 018°46'8 7.6
2016-Jul-22 07:33N 54°23' E 018°40'2 0.8
2016-Jul-22 05:33N 54°22' E 018°40'0 0.0
2016-Jul-22 04:33N 54°22' E 018°40'0 0.0
2016-Jul-22 03:33N 54°22' E 018°40'0 0.0
2016-Jul-22 02:33N 54°22' E 018°40'0 0.0
2016-Jul-22 01:33N 54°22' E 018°40'0 0.0
2016-Jul-22 00:33N 54°22' E 018°40'0 0.0
2016-Jul-21 23:33N 54°22' E 018°40'0 0.0
2016-Jul-21 22:33N 54°22' E 018°40'0 0.0
2016-Jul-21 21:33N 54°22' E 018°40'0 0.0
2016-Jul-21 20:33N 54°22' E 018°40'0 0.0
2016-Jul-21 19:33N 54°22' E 018°40'0 0.0
2016-Jul-21 18:33N 54°22' E 018°40'0 0.0
2016-Jul-21 17:33N 54°22' E 018°40'0 0.0
2016-Jul-21 16:33N 54°22' E 018°40'0 0.0
2016-Jul-21 15:33N 54°22' E 018°40'0 0.0
2016-Jul-21 14:33N 54°22' E 018°40'0 0.0
2016-Jul-21 13:33N 54°22' E 018°40'0 0.0
2016-Jul-21 12:33N 54°22' E 018°40'0 0.0
2016-Jul-21 11:33N 54°22' E 018°40'0 0.0
2016-Jul-21 10:33N 54°22' E 018°40'0 0.0
2016-Jul-21 09:33N 54°22' E 018°40'0 0.0
2016-Jul-21 08:33N 54°22' E 018°40'0 0.0
2016-Jul-21 07:33N 54°22' E 018°40'0 0.0
2016-Jul-21 06:33N 54°22' E 018°40'0 0.0
2016-Jul-21 05:33N 54°22' E 018°40'0 0.0
2016-Jul-21 04:33N 54°22' E 018°40'0 0.0
2016-Jul-21 03:33N 54°22' E 018°40'0 0.0
2016-Jul-21 02:33N 54°22' E 018°40'0 0.0
2016-Jul-21 01:34N 54°22' E 018°40'0 0.0
2016-Jul-21 00:33N 54°22' E 018°40'0 0.0
2016-Jul-20 23:33N 54°22' E 018°40'0 0.0
2016-Jul-20 22:33N 54°22' E 018°40'0 0.0
2016-Jul-20 21:33N 54°22' E 018°40'0 0.0
2016-Jul-20 20:33N 54°22' E 018°40'0 0.0
2016-Jul-20 19:33N 54°22' E 018°40'0 0.0
2016-Jul-20 18:33N 54°22' E 018°40'0 0.0
2016-Jul-20 17:33N 54°22' E 018°40'0 0.0
2016-Jul-20 16:33N 54°22' E 018°40'0 0.0
2016-Jul-20 15:33N 54°22' E 018°40'0 0.0
2016-Jul-20 14:33N 54°22' E 018°40'0 0.0
2016-Jul-20 13:33N 54°22' E 018°40'0 0.0
2016-Jul-20 12:33N 54°22' E 018°40'0 0.0
2016-Jul-20 11:33N 54°22' E 018°40'0 0.0
2016-Jul-20 10:33N 54°22' E 018°40'0 0.0
2016-Jul-20 09:34N 54°22' E 018°40'0 0.0
2016-Jul-20 08:33N 54°22' E 018°40'0 0.0
2016-Jul-20 07:33N 54°22' E 018°40'0 0.0
2016-Jul-20 06:34N 54°22' E 018°40'0 0.0
2016-Jul-20 05:33N 54°22' E 018°40'0 0.0
2016-Jul-20 04:33N 54°22' E 018°40'0 0.0
2016-Jul-20 03:33N 54°22' E 018°40'0 0.0
2016-Jul-20 02:33N 54°22' E 018°40'0 0.0
2016-Jul-20 01:33N 54°22' E 018°40'0 0.0
2016-Jul-20 00:33N 54°22' E 018°40'0 0.0
2016-Jul-19 23:33N 54°22' E 018°40'0 0.0
2016-Jul-19 22:33N 54°22' E 018°40'0 0.0
2016-Jul-19 21:33N 54°22' E 018°40'0 0.0
2016-Jul-19 20:33N 54°22' E 018°40'5 4.5
2016-Jul-19 19:33N 54°26' E 018°40'1110.7
2016-Jul-19 18:33N 54°34' E 018°51'10 9.9
2016-Jul-19 17:33N 54°41' E 019°04'1111.0
2016-Jul-19 16:33N 54°41' E 019°23'1110.8
2016-Jul-19 15:33N 54°42' E 019°42'9 8.8
2016-Jul-19 14:33N 54°38' E 019°56'9 8.0
2016-Jul-19 13:26N 54°41' E 020°10'  
2016-Jul-17 02:33N 54°41' E 020°12'0 0.0
2016-Jul-17 01:33N 54°41' E 020°12'0 0.0
2016-Jul-17 00:33N 54°41' E 020°12'0 0.0
2016-Jul-16 23:33N 54°41' E 020°12'0 0.0
2016-Jul-16 22:31N 54°41' E 020°12'  
Track history (hours):
 
Tides and Currents Weather Stations Pressure Air Temp Water Temp Dewpoint Dewpoint Depression Visibility Wind Speed Wind Dir Waves Ship Positions

Jomi

Last reported at 2016-Jul-25 07:09 UTC. Time now 2016-Jul-26 16:01 UTC.
Position N 55°43' E 010°25'.

Length 88 m; draft 6 m.

Type: Cargo ship. MMSI: 309701000.

Date/timePositionNaut miles runAvg speedWind from/ knotsBaromVisibWave heightAir tempDewpointWater temp
2016-Jul-25 07:09N 55°43' E 010°25'810.7
2016-Jul-25 06:24N 55°45' E 010°39'8 9.0
2016-Jul-25 05:33N 55°50' E 010°49'9 9.2
2016-Jul-25 04:33N 55°57' E 010°60'9 9.2
2016-Jul-25 03:33N 56°05' E 011°08'10 9.7
2016-Jul-25 02:30N 56°09' E 011°25'1010.9
2016-Jul-25 01:33N 56°09' E 011°44'1010.5
2016-Jul-25 00:33N 56°11' E 012°02'1010.2
2016-Jul-24 23:33N 56°11' E 012°21'1111.2
2016-Jul-24 22:33N 56°04' E 012°37'1111.0
2016-Jul-24 21:33N 55°54' E 012°45'1111.3
2016-Jul-24 20:33N 55°43' E 012°41'1111.2
2016-Jul-24 19:33N 55°32' E 012°43'1010.4
2016-Jul-24 18:33N 55°22' E 012°41'9 8.9
2016-Jul-24 17:33N 55°16' E 012°54'1010.5
2016-Jul-24 16:34N 55°16' E 013°12'1110.5
2016-Jul-24 15:33N 55°15' E 013°30'1110.7
2016-Jul-24 14:33N 55°14' E 013°49'1111.0
2016-Jul-24 13:33N 55°14' E 014°08'10 9.6
2016-Jul-24 12:33N 55°18' E 014°23'1010.3
2016-Jul-24 11:33N 55°25' E 014°36'1110.5
2016-Jul-24 10:33N 55°30' E 014°53'8310.3
2016-Jul-24 02:31N 55°53' E 017°13'91 2.3
2016-Jul-22 10:33N 54°48' E 019°06'1010.5
2016-Jul-22 09:33N 54°39' E 018°57'1110.6
2016-Jul-22 08:33N 54°30' E 018°46'8 7.6
2016-Jul-22 07:33N 54°23' E 018°40'2 0.8
2016-Jul-22 05:33N 54°22' E 018°40'0 0.0
2016-Jul-22 04:33N 54°22' E 018°40'0 0.0
2016-Jul-22 03:33N 54°22' E 018°40'0 0.0
2016-Jul-22 02:33N 54°22' E 018°40'0 0.0
2016-Jul-22 01:33N 54°22' E 018°40'0 0.0
2016-Jul-22 00:33N 54°22' E 018°40'0 0.0
2016-Jul-21 23:33N 54°22' E 018°40'0 0.0
2016-Jul-21 22:33N 54°22' E 018°40'0 0.0
2016-Jul-21 21:33N 54°22' E 018°40'0 0.0
2016-Jul-21 20:33N 54°22' E 018°40'0 0.0
2016-Jul-21 19:33N 54°22' E 018°40'0 0.0
2016-Jul-21 18:33N 54°22' E 018°40'0 0.0
2016-Jul-21 17:33N 54°22' E 018°40'0 0.0
2016-Jul-21 16:33N 54°22' E 018°40'0 0.0
2016-Jul-21 15:33N 54°22' E 018°40'0 0.0
2016-Jul-21 14:33N 54°22' E 018°40'0 0.0
2016-Jul-21 13:33N 54°22' E 018°40'0 0.0
2016-Jul-21 12:33N 54°22' E 018°40'0 0.0
2016-Jul-21 11:33N 54°22' E 018°40'0 0.0
2016-Jul-21 10:33N 54°22' E 018°40'0 0.0
2016-Jul-21 09:33N 54°22' E 018°40'0 0.0
2016-Jul-21 08:33N 54°22' E 018°40'0 0.0
2016-Jul-21 07:33N 54°22' E 018°40'0 0.0
2016-Jul-21 06:33N 54°22' E 018°40'0 0.0
2016-Jul-21 05:33N 54°22' E 018°40'0 0.0
2016-Jul-21 04:33N 54°22' E 018°40'0 0.0
2016-Jul-21 03:33N 54°22' E 018°40'0 0.0
2016-Jul-21 02:33N 54°22' E 018°40'0 0.0
2016-Jul-21 01:34N 54°22' E 018°40'0 0.0
2016-Jul-21 00:33N 54°22' E 018°40'0 0.0
2016-Jul-20 23:33N 54°22' E 018°40'0 0.0
2016-Jul-20 22:33N 54°22' E 018°40'0 0.0
2016-Jul-20 21:33N 54°22' E 018°40'0 0.0
2016-Jul-20 20:33N 54°22' E 018°40'0 0.0
2016-Jul-20 19:33N 54°22' E 018°40'0 0.0
2016-Jul-20 18:33N 54°22' E 018°40'0 0.0
2016-Jul-20 17:33N 54°22' E 018°40'0 0.0
2016-Jul-20 16:33N 54°22' E 018°40'0 0.0
2016-Jul-20 15:33N 54°22' E 018°40'0 0.0
2016-Jul-20 14:33N 54°22' E 018°40'0 0.0
2016-Jul-20 13:33N 54°22' E 018°40'0 0.0
2016-Jul-20 12:33N 54°22' E 018°40'0 0.0
2016-Jul-20 11:33N 54°22' E 018°40'0 0.0
2016-Jul-20 10:33N 54°22' E 018°40'0 0.0
2016-Jul-20 09:34N 54°22' E 018°40'0 0.0
2016-Jul-20 08:33N 54°22' E 018°40'0 0.0
2016-Jul-20 07:33N 54°22' E 018°40'0 0.0
2016-Jul-20 06:34N 54°22' E 018°40'0 0.0
2016-Jul-20 05:33N 54°22' E 018°40'0 0.0
2016-Jul-20 04:33N 54°22' E 018°40'0 0.0
2016-Jul-20 03:33N 54°22' E 018°40'0 0.0
2016-Jul-20 02:33N 54°22' E 018°40'0 0.0
2016-Jul-20 01:33N 54°22' E 018°40'0 0.0
2016-Jul-20 00:33N 54°22' E 018°40'0 0.0
2016-Jul-19 23:33N 54°22' E 018°40'0 0.0
2016-Jul-19 22:33N 54°22' E 018°40'0 0.0
2016-Jul-19 21:33N 54°22' E 018°40'0 0.0
2016-Jul-19 20:33N 54°22' E 018°40'5 4.5
2016-Jul-19 19:33N 54°26' E 018°40'1110.7
2016-Jul-19 18:33N 54°34' E 018°51'10 9.9
2016-Jul-19 17:33N 54°41' E 019°04'1111.0
2016-Jul-19 16:33N 54°41' E 019°23'1110.8
2016-Jul-19 15:33N 54°42' E 019°42'9 8.8
2016-Jul-19 14:33N 54°38' E 019°56'9 8.0
2016-Jul-19 13:26N 54°41' E 020°10'  
2016-Jul-17 02:33N 54°41' E 020°12'0 0.0
2016-Jul-17 01:33N 54°41' E 020°12'0 0.0
2016-Jul-17 00:33N 54°41' E 020°12'0 0.0
2016-Jul-16 23:33N 54°41' E 020°12'0 0.0
2016-Jul-16 22:31N 54°41' E 020°12'  

Dump ship's entire track history